This is the latest recevied weather packets stored in our database for station/object K2ATL. If no packets are shown the sender has not sent any weather packets the latest 10 day(s).
| Time | Temp. | Humidity | Pressure | Rain* | Wind** | Luminosity | Snow |
|---|---|---|---|---|---|---|---|
| 1777216385 | 17.22° C | 84% | 1099 hPa | 0 mm | - | 769 W/m² | - |
| 1777216084 | 16.67° C | 86% | 1099.2 hPa | 0 mm | - | 805 W/m² | - |
| 1777215779 | 16.67° C | 88% | 1099.1 hPa | 0 mm | - | 778 W/m² | - |
| 1777215476 | 17.78° C | 82% | 1099.3 hPa | 0 mm | - | 829 W/m² | - |
| 1777215173 | 16.11° C | 86% | 1099.1 hPa | 0 mm | - | 527 W/m² | - |
| 1777214873 | 16.11° C | 86% | 1099.2 hPa | 0 mm | - | 816 W/m² | - |
| 1777214572 | 16.67° C | 88% | 1098.9 hPa | 0 mm | - | 792 W/m² | - |
| 1777214268 | 15.56° C | 88% | 1099 hPa | 0 mm | - | 750 W/m² | - |
| 1777213966 | 16.67° C | 83% | 1098.9 hPa | 0 mm | - | 671 W/m² | - |
| 1777213661 | 16.11° C | 86% | 1098.8 hPa | 0 mm | - | 663 W/m² | - |
| 1777213357 | 16.11° C | 84% | 1098.5 hPa | 0 mm | - | 667 W/m² | - |
| 1777213055 | 15.56° C | 89% | 1098.5 hPa | 0 mm | - | 604 W/m² | - |
| 1777212753 | 15.56° C | 90% | 1098.7 hPa | 0 mm | - | 653 W/m² | - |
| 1777212453 | 15° C | 90% | 1098.6 hPa | 0 mm | - | 507 W/m² | - |
| 1777212147 | 14.44° C | 93% | 1098.4 hPa | 0 mm | - | 490 W/m² | - |
| 1777211844 | 14.44° C | 94% | 1098.3 hPa | 0 mm | - | 298 W/m² | - |
| 1777211542 | 15° C | 93% | 1098.4 hPa | 0 mm | - | 269 W/m² | - |
| 1777211238 | 15° C | 92% | 1098.1 hPa | 0 mm | - | 259 W/m² | - |
| 1777210935 | 15.56° C | 92% | 1098.5 hPa | 0 mm | - | 175 W/m² | - |
| 1777210634 | 13.89° C | 94% | 1098.4 hPa | 0 mm | - | 574 W/m² | - |
| 1777210331 | 15° C | 93% | 1098.3 hPa | 0 mm | - | 196 W/m² | - |
| 1777210029 | 15° C | 93% | 1098.1 hPa | 0 mm | - | 235 W/m² | - |
| 1777209728 | 14.44° C | 93% | 1098.1 hPa | 0 mm | - | 287 W/m² | - |
| 1777209424 | 12.78° C | 93% | 1098.1 hPa | 0 mm | - | 432 W/m² | - |
| 1777209121 | 14.44° C | 94% | 1098 hPa | 0 mm | - | 181 W/m² | - |
* Rain latest hour (hover to see other rain measurements)
** Current wind speed in m/s (hover to see current wind gust speed)